sensor_id;sensor_type;location;lat;lon;timestamp;temperature;humidity
26745;DHT22;14342;50.960;13.880;2024-02-28T00:00:17;5.80;99.90
26745;DHT22;14342;50.960;13.880;2024-02-28T00:01:19;5.60;99.90
26745;DHT22;14342;50.960;13.880;2024-02-28T00:02:20;5.60;99.90
26745;DHT22;14342;50.960;13.880;2024-02-28T00:03:21;5.60;99.90
26745;DHT22;14342;50.960;13.880;2024-02-28T00:04:24;6.00;99.90
26745;DHT22;14342;50.960;13.880;2024-02-28T00:05:25;5.60;99.90
26745;DHT22;14342;50.960;13.880;2024-02-28T00:06:26;5.60;99.90
26745;DHT22;14342;50.960;13.880;2024-02-28T00:07:27;5.70;99.90
26745;DHT22;14342;50.960;13.880;2024-02-28T00:08:28;5.70;99.90
26745;DHT22;14342;50.960;13.880;2024-02-28T00:09:30;5.80;99.90
26745;DHT22;14342;50.960;13.880;2024-02-28T00:10:33;5.80;99.90
26745;DHT22;14342;50.960;13.880;2024-02-28T00:11:33;5.80;99.90
26745;DHT22;14342;50.960;13.880;2024-02-28T00:12:35;5.90;99.90
26745;DHT22;14342;50.960;13.880;2024-02-28T00:13:35;5.90;99.90
26745;DHT22;14342;50.960;13.880;2024-02-28T00:14:37;5.90;99.90
26745;DHT22;14342;50.960;13.880;2024-02-28T00:15:38;5.90;99.90
26745;DHT22;14342;50.960;13.880;2024-02-28T00:16:39;5.80;99.90
26745;DHT22;14342;50.960;13.880;2024-02-28T00:17:40;5.70;99.90
26745;DHT22;14342;50.960;13.880;2024-02-28T00:18:41;5.60;99.90
26745;DHT22;14342;50.960;13.880;2024-02-28T00:19:42;5.70;99.90
26745;DHT22;14342;50.960;13.880;2024-02-28T00:20:43;5.70;99.90
26745;DHT22;14342;50.960;13.880;2024-02-28T00:21:45;5.80;99.90
26745;DHT22;14342;50.960;13.880;2024-02-28T00:22:46;5.80;99.90
26745;DHT22;14342;50.960;13.880;2024-02-28T00:23:47;5.80;99.90
26745;DHT22;14342;50.960;13.880;2024-02-28T00:24:48;5.80;99.90
26745;DHT22;14342;50.960;13.880;2024-02-28T00:25:50;5.80;99.90
26745;DHT22;14342;50.960;13.880;2024-02-28T00:26:51;5.80;99.90
26745;DHT22;14342;50.960;13.880;2024-02-28T00:27:52;5.70;99.90
26745;DHT22;14342;50.960;13.880;2024-02-28T00:28:53;5.70;99.90
26745;DHT22;14342;50.960;13.880;2024-02-28T00:29:54;5.70;99.90
26745;DHT22;14342;50.960;13.880;2024-02-28T00:30:55;5.60;99.90
26745;DHT22;14342;50.960;13.880;2024-02-28T00:31:56;5.60;99.90
26745;DHT22;14342;50.960;13.880;2024-02-28T00:32:58;5.60;99.90
26745;DHT22;14342;50.960;13.880;2024-02-28T00:33:58;5.50;99.90
26745;DHT22;14342;50.960;13.880;2024-02-28T00:35:00;5.50;99.90
26745;DHT22;14342;50.960;13.880;2024-02-28T00:36:00;5.50;99.90
26745;DHT22;14342;50.960;13.880;2024-02-28T00:37:02;5.60;99.90
26745;DHT22;14342;50.960;13.880;2024-02-28T00:38:03;5.90;99.90
26745;DHT22;14342;50.960;13.880;2024-02-28T00:39:04;5.60;99.90
26745;DHT22;14342;50.960;13.880;2024-02-28T00:40:06;5.70;99.90
26745;DHT22;14342;50.960;13.880;2024-02-28T00:41:09;5.80;99.90
26745;DHT22;14342;50.960;13.880;2024-02-28T00:42:11;6.10;99.90
26745;DHT22;14342;50.960;13.880;2024-02-28T00:43:11;5.80;99.90
26745;DHT22;14342;50.960;13.880;2024-02-28T00:44:13;5.90;99.90
26745;DHT22;14342;50.960;13.880;2024-02-28T00:45:14;5.90;99.90
26745;DHT22;14342;50.960;13.880;2024-02-28T00:46:14;6.00;99.90
26745;DHT22;14342;50.960;13.880;2024-02-28T00:47:16;6.00;99.90
26745;DHT22;14342;50.960;13.880;2024-02-28T00:48:16;6.30;99.90
26745;DHT22;14342;50.960;13.880;2024-02-28T00:49:18;6.00;99.90
26745;DHT22;14342;50.960;13.880;2024-02-28T00:50:19;6.00;99.90
26745;DHT22;14342;50.960;13.880;2024-02-28T00:51:20;6.00;99.90
26745;DHT22;14342;50.960;13.880;2024-02-28T00:52:21;6.00;99.90
26745;DHT22;14342;50.960;13.880;2024-02-28T00:53:22;6.00;99.90
26745;DHT22;14342;50.960;13.880;2024-02-28T00:54:23;6.00;99.90
26745;DHT22;14342;50.960;13.880;2024-02-28T00:55:26;6.10;99.90
26745;DHT22;14342;50.960;13.880;2024-02-28T00:56:28;6.10;99.90
26745;DHT22;14342;50.960;13.880;2024-02-28T00:57:29;6.00;99.90
26745;DHT22;14342;50.960;13.880;2024-02-28T00:58:30;6.20;99.90
26745;DHT22;14342;50.960;13.880;2024-02-28T00:59:32;6.00;99.90
26745;DHT22;14342;50.960;13.880;2024-02-28T01:00:32;6.10;99.90
26745;DHT22;14342;50.960;13.880;2024-02-28T01:01:34;6.10;99.90
26745;DHT22;14342;50.960;13.880;2024-02-28T01:02:34;6.10;99.90
26745;DHT22;14342;50.960;13.880;2024-02-28T01:03:35;6.00;99.90
26745;DHT22;14342;50.960;13.880;2024-02-28T01:04:36;5.90;99.90
26745;DHT22;14342;50.960;13.880;2024-02-28T01:05:37;6.00;99.90
26745;DHT22;14342;50.960;13.880;2024-02-28T01:06:39;6.00;99.90
26745;DHT22;14342;50.960;13.880;2024-02-28T01:07:39;6.10;99.90
26745;DHT22;14342;50.960;13.880;2024-02-28T01:08:40;6.10;99.90
26745;DHT22;14342;50.960;13.880;2024-02-28T01:09:41;6.10;99.90
26745;DHT22;14342;50.960;13.880;2024-02-28T01:10:42;6.30;99.90
26745;DHT22;14342;50.960;13.880;2024-02-28T01:11:45;6.10;99.90
26745;DHT22;14342;50.960;13.880;2024-02-28T01:12:45;6.10;99.90
26745;DHT22;14342;50.960;13.880;2024-02-28T01:13:47;6.10;99.90
26745;DHT22;14342;50.960;13.880;2024-02-28T01:14:47;6.10;99.90
26745;DHT22;14342;50.960;13.880;2024-02-28T01:15:49;6.10;99.90
26745;DHT22;14342;50.960;13.880;2024-02-28T01:16:50;6.10;99.90
26745;DHT22;14342;50.960;13.880;2024-02-28T01:17:50;6.10;99.90
26745;DHT22;14342;50.960;13.880;2024-02-28T01:18:52;6.10;99.90
26745;DHT22;14342;50.960;13.880;2024-02-28T01:19:52;6.10;99.90
26745;DHT22;14342;50.960;13.880;2024-02-28T01:20:54;6.00;99.90
26745;DHT22;14342;50.960;13.880;2024-02-28T01:21:55;5.90;99.90
26745;DHT22;14342;50.960;13.880;2024-02-28T01:22:56;6.00;99.90
26745;DHT22;14342;50.960;13.880;2024-02-28T01:23:57;6.10;99.90
26745;DHT22;14342;50.960;13.880;2024-02-28T01:24:57;5.80;99.90
26745;DHT22;14342;50.960;13.880;2024-02-28T01:25:59;5.80;99.90
26745;DHT22;14342;50.960;13.880;2024-02-28T01:27:01;5.80;99.90
26745;DHT22;14342;50.960;13.880;2024-02-28T01:28:03;5.70;99.90
26745;DHT22;14342;50.960;13.880;2024-02-28T01:29:05;5.90;99.90
26745;DHT22;14342;50.960;13.880;2024-02-28T01:30:06;5.60;99.90
26745;DHT22;14342;50.960;13.880;2024-02-28T01:31:07;5.60;99.90
26745;DHT22;14342;50.960;13.880;2024-02-28T01:32:09;5.60;99.90
26745;DHT22;14342;50.960;13.880;2024-02-28T01:33:09;5.90;99.90
26745;DHT22;14342;50.960;13.880;2024-02-28T01:34:12;5.60;99.90
26745;DHT22;14342;50.960;13.880;2024-02-28T01:35:13;5.60;99.90
26745;DHT22;14342;50.960;13.880;2024-02-28T01:36:15;5.60;99.90
26745;DHT22;14342;50.960;13.880;2024-02-28T01:37:15;5.70;99.90
26745;DHT22;14342;50.960;13.880;2024-02-28T01:38:17;5.70;99.90
26745;DHT22;14342;50.960;13.880;2024-02-28T01:39:18;5.70;99.90
26745;DHT22;14342;50.960;13.880;2024-02-28T01:40:19;5.70;99.90
26745;DHT22;14342;50.960;13.880;2024-02-28T01:41:20;5.80;99.90
26745;DHT22;14342;50.960;13.880;2024-02-28T01:42:23;5.70;99.90
26745;DHT22;14342;50.960;13.880;2024-02-28T01:43:23;5.70;99.90
26745;DHT22;14342;50.960;13.880;2024-02-28T01:44:25;5.80;99.90
26745;DHT22;14342;50.960;13.880;2024-02-28T01:45:25;5.90;99.90
26745;DHT22;14342;50.960;13.880;2024-02-28T01:46:27;5.80;99.90
26745;DHT22;14342;50.960;13.880;2024-02-28T01:47:28;5.90;99.90
26745;DHT22;14342;50.960;13.880;2024-02-28T01:48:30;6.00;99.90
26745;DHT22;14342;50.960;13.880;2024-02-28T01:49:31;6.00;99.90
26745;DHT22;14342;50.960;13.880;2024-02-28T01:50:32;6.00;99.90
26745;DHT22;14342;50.960;13.880;2024-02-28T01:51:34;6.10;99.90
26745;DHT22;14342;50.960;13.880;2024-02-28T01:52:35;6.20;99.90
26745;DHT22;14342;50.960;13.880;2024-02-28T01:53:37;6.20;99.90
26745;DHT22;14342;50.960;13.880;2024-02-28T01:54:37;6.30;99.90
26745;DHT22;14342;50.960;13.880;2024-02-28T01:55:39;6.30;99.90
26745;DHT22;14342;50.960;13.880;2024-02-28T01:56:40;6.30;99.90
26745;DHT22;14342;50.960;13.880;2024-02-28T01:57:43;6.30;99.90
26745;DHT22;14342;50.960;13.880;2024-02-28T01:58:45;6.30;99.90
26745;DHT22;14342;50.960;13.880;2024-02-28T01:59:46;6.30;99.90
26745;DHT22;14342;50.960;13.880;2024-02-28T02:00:48;6.30;99.90
26745;DHT22;14342;50.960;13.880;2024-02-28T02:01:49;6.30;99.90
26745;DHT22;14342;50.960;13.880;2024-02-28T02:02:51;6.30;99.90
26745;DHT22;14342;50.960;13.880;2024-02-28T02:03:52;6.30;99.90
26745;DHT22;14342;50.960;13.880;2024-02-28T02:04:53;6.30;99.90
26745;DHT22;14342;50.960;13.880;2024-02-28T02:05:54;6.40;99.90
26745;DHT22;14342;50.960;13.880;2024-02-28T02:06:56;6.10;99.90
26745;DHT22;14342;50.960;13.880;2024-02-28T02:07:58;6.30;99.90
26745;DHT22;14342;50.960;13.880;2024-02-28T02:09:01;6.30;99.90
26745;DHT22;14342;50.960;13.880;2024-02-28T02:10:01;6.20;99.90
26745;DHT22;14342;50.960;13.880;2024-02-28T02:11:02;6.20;99.90
26745;DHT22;14342;50.960;13.880;2024-02-28T02:12:04;6.30;99.90
26745;DHT22;14342;50.960;13.880;2024-02-28T02:13:06;6.30;99.90
26745;DHT22;14342;50.960;13.880;2024-02-28T02:14:08;6.30;99.90
26745;DHT22;14342;50.960;13.880;2024-02-28T02:15:08;6.30;99.90
26745;DHT22;14342;50.960;13.880;2024-02-28T02:16:10;6.30;99.90
26745;DHT22;14342;50.960;13.880;2024-02-28T02:17:11;6.30;99.90
26745;DHT22;14342;50.960;13.880;2024-02-28T02:18:12;6.30;99.90
26745;DHT22;14342;50.960;13.880;2024-02-28T02:19:13;6.40;99.90
26745;DHT22;14342;50.960;13.880;2024-02-28T02:20:14;6.20;99.90
26745;DHT22;14342;50.960;13.880;2024-02-28T02:21:17;6.30;99.90
26745;DHT22;14342;50.960;13.880;2024-02-28T02:22:18;6.30;99.90
26745;DHT22;14342;50.960;13.880;2024-02-28T02:23:21;6.20;99.90
26745;DHT22;14342;50.960;13.880;2024-02-28T02:24:22;6.20;99.90
26745;DHT22;14342;50.960;13.880;2024-02-28T02:25:22;6.30;99.90
26745;DHT22;14342;50.960;13.880;2024-02-28T02:26:24;6.20;99.90
26745;DHT22;14342;50.960;13.880;2024-02-28T02:27:24;6.30;99.90
26745;DHT22;14342;50.960;13.880;2024-02-28T02:28:26;6.20;99.90
26745;DHT22;14342;50.960;13.880;2024-02-28T02:29:27;6.30;99.90
26745;DHT22;14342;50.960;13.880;2024-02-28T02:30:28;6.20;99.90
26745;DHT22;14342;50.960;13.880;2024-02-28T02:31:30;6.20;99.90
26745;DHT22;14342;50.960;13.880;2024-02-28T02:32:30;6.10;99.90
26745;DHT22;14342;50.960;13.880;2024-02-28T02:33:31;6.10;99.90
26745;DHT22;14342;50.960;13.880;2024-02-28T02:34:33;6.10;99.90
26745;DHT22;14342;50.960;13.880;2024-02-28T02:35:33;6.10;99.90
26745;DHT22;14342;50.960;13.880;2024-02-28T02:36:35;6.20;99.90
26745;DHT22;14342;50.960;13.880;2024-02-28T02:37:35;6.00;99.90
26745;DHT22;14342;50.960;13.880;2024-02-28T02:38:38;6.00;99.90
26745;DHT22;14342;50.960;13.880;2024-02-28T02:39:39;6.00;99.90
26745;DHT22;14342;50.960;13.880;2024-02-28T02:40:40;6.00;99.90
26745;DHT22;14342;50.960;13.880;2024-02-28T02:41:41;6.00;99.90
26745;DHT22;14342;50.960;13.880;2024-02-28T02:42:42;6.10;99.90
26745;DHT22;14342;50.960;13.880;2024-02-28T02:43:43;6.00;99.90
26745;DHT22;14342;50.960;13.880;2024-02-28T02:44:44;6.10;99.90
26745;DHT22;14342;50.960;13.880;2024-02-28T02:45:45;6.10;99.90
26745;DHT22;14342;50.960;13.880;2024-02-28T02:46:46;6.20;99.90
26745;DHT22;14342;50.960;13.880;2024-02-28T02:47:46;6.10;99.90
26745;DHT22;14342;50.960;13.880;2024-02-28T02:48:48;6.10;99.90
26745;DHT22;14342;50.960;13.880;2024-02-28T02:49:49;6.10;99.90
26745;DHT22;14342;50.960;13.880;2024-02-28T02:50:50;6.30;99.90
26745;DHT22;14342;50.960;13.880;2024-02-28T02:51:51;6.10;99.90
26745;DHT22;14342;50.960;13.880;2024-02-28T02:52:52;6.00;99.90
26745;DHT22;14342;50.960;13.880;2024-02-28T02:53:54;6.00;99.90
26745;DHT22;14342;50.960;13.880;2024-02-28T02:54:56;6.00;99.90
26745;DHT22;14342;50.960;13.880;2024-02-28T02:55:56;6.00;99.90
26745;DHT22;14342;50.960;13.880;2024-02-28T02:56:58;6.00;99.90
26745;DHT22;14342;50.960;13.880;2024-02-28T02:57:59;6.00;99.90
26745;DHT22;14342;50.960;13.880;2024-02-28T02:59:01;6.00;99.90
26745;DHT22;14342;50.960;13.880;2024-02-28T03:00:01;6.00;99.90
26745;DHT22;14342;50.960;13.880;2024-02-28T03:01:03;6.00;99.90
26745;DHT22;14342;50.960;13.880;2024-02-28T03:02:04;6.10;99.90
26745;DHT22;14342;50.960;13.880;2024-02-28T03:03:05;6.10;99.90
26745;DHT22;14342;50.960;13.880;2024-02-28T03:04:06;6.10;99.90
26745;DHT22;14342;50.960;13.880;2024-02-28T03:05:07;6.10;99.90
26745;DHT22;14342;50.960;13.880;2024-02-28T03:06:08;6.10;99.90
26745;DHT22;14342;50.960;13.880;2024-02-28T03:07:10;6.10;99.90
26745;DHT22;14342;50.960;13.880;2024-02-28T03:08:11;6.10;99.90
26745;DHT22;14342;50.960;13.880;2024-02-28T03:09:13;6.10;99.90
26745;DHT22;14342;50.960;13.880;2024-02-28T03:10:14;6.00;99.90
26745;DHT22;14342;50.960;13.880;2024-02-28T03:11:15;6.00;99.90
26745;DHT22;14342;50.960;13.880;2024-02-28T03:12:16;6.20;99.90
26745;DHT22;14342;50.960;13.880;2024-02-28T03:13:17;6.10;99.90
26745;DHT22;14342;50.960;13.880;2024-02-28T03:14:19;6.10;99.90
26745;DHT22;14342;50.960;13.880;2024-02-28T03:15:22;6.10;99.90
26745;DHT22;14342;50.960;13.880;2024-02-28T03:16:23;6.10;99.90
26745;DHT22;14342;50.960;13.880;2024-02-28T03:17:23;6.00;99.90
26745;DHT22;14342;50.960;13.880;2024-02-28T03:18:25;6.10;99.90
26745;DHT22;14342;50.960;13.880;2024-02-28T03:19:25;6.00;99.90
26745;DHT22;14342;50.960;13.880;2024-02-28T03:20:27;5.90;99.90
26745;DHT22;14342;50.960;13.880;2024-02-28T03:21:28;5.90;99.90
26745;DHT22;14342;50.960;13.880;2024-02-28T03:22:30;5.90;99.90
26745;DHT22;14342;50.960;13.880;2024-02-28T03:23:30;5.80;99.90
26745;DHT22;14342;50.960;13.880;2024-02-28T03:24:33;5.70;99.90
26745;DHT22;14342;50.960;13.880;2024-02-28T03:25:35;5.60;99.90
26745;DHT22;14342;50.960;13.880;2024-02-28T03:26:37;5.60;99.90
26745;DHT22;14342;50.960;13.880;2024-02-28T03:27:37;5.70;99.90
26745;DHT22;14342;50.960;13.880;2024-02-28T03:28:39;5.70;99.90
26745;DHT22;14342;50.960;13.880;2024-02-28T03:29:40;5.60;99.90
26745;DHT22;14342;50.960;13.880;2024-02-28T03:30:41;5.70;99.90
26745;DHT22;14342;50.960;13.880;2024-02-28T03:31:42;5.60;99.90
26745;DHT22;14342;50.960;13.880;2024-02-28T03:32:43;5.60;99.90
26745;DHT22;14342;50.960;13.880;2024-02-28T03:33:44;5.60;99.90
26745;DHT22;14342;50.960;13.880;2024-02-28T03:34:47;5.60;99.90
26745;DHT22;14342;50.960;13.880;2024-02-28T03:35:48;5.60;99.90
26745;DHT22;14342;50.960;13.880;2024-02-28T03:36:50;5.60;99.90
26745;DHT22;14342;50.960;13.880;2024-02-28T03:37:50;5.90;99.90
26745;DHT22;14342;50.960;13.880;2024-02-28T03:38:52;5.60;99.90
26745;DHT22;14342;50.960;13.880;2024-02-28T03:39:54;5.60;99.90
26745;DHT22;14342;50.960;13.880;2024-02-28T03:40:54;5.80;99.90
26745;DHT22;14342;50.960;13.880;2024-02-28T03:41:56;5.70;99.90
26745;DHT22;14342;50.960;13.880;2024-02-28T03:42:57;5.60;99.90
26745;DHT22;14342;50.960;13.880;2024-02-28T03:43:59;5.60;99.90
26745;DHT22;14342;50.960;13.880;2024-02-28T03:45:00;5.60;99.90
26745;DHT22;14342;50.960;13.880;2024-02-28T03:46:01;5.60;99.90
26745;DHT22;14342;50.960;13.880;2024-02-28T03:47:02;5.60;99.90
26745;DHT22;14342;50.960;13.880;2024-02-28T03:48:04;5.60;99.90
26745;DHT22;14342;50.960;13.880;2024-02-28T03:49:05;5.60;99.90
26745;DHT22;14342;50.960;13.880;2024-02-28T03:50:07;5.60;99.90
26745;DHT22;14342;50.960;13.880;2024-02-28T03:51:07;5.70;99.90
26745;DHT22;14342;50.960;13.880;2024-02-28T03:52:09;5.70;99.90
26745;DHT22;14342;50.960;13.880;2024-02-28T03:53:09;5.70;99.90
26745;DHT22;14342;50.960;13.880;2024-02-28T03:54:11;5.70;99.90
26745;DHT22;14342;50.960;13.880;2024-02-28T03:55:13;5.70;99.90
26745;DHT22;14342;50.960;13.880;2024-02-28T03:56:20;5.80;99.90
26745;DHT22;14342;50.960;13.880;2024-02-28T03:57:22;5.80;99.90
26745;DHT22;14342;50.960;13.880;2024-02-28T03:58:23;5.70;99.90
26745;DHT22;14342;50.960;13.880;2024-02-28T03:59:24;5.70;99.90
26745;DHT22;14342;50.960;13.880;2024-02-28T04:00:25;5.70;99.90
26745;DHT22;14342;50.960;13.880;2024-02-28T04:01:26;6.00;99.90
26745;DHT22;14342;50.960;13.880;2024-02-28T04:02:28;5.60;99.90
26745;DHT22;14342;50.960;13.880;2024-02-28T04:03:28;5.60;99.90
26745;DHT22;14342;50.960;13.880;2024-02-28T04:04:30;5.70;99.90
26745;DHT22;14342;50.960;13.880;2024-02-28T04:05:30;5.50;99.90
26745;DHT22;14342;50.960;13.880;2024-02-28T04:06:32;5.80;99.90
26745;DHT22;14342;50.960;13.880;2024-02-28T04:07:33;5.60;99.90
26745;DHT22;14342;50.960;13.880;2024-02-28T04:08:33;5.80;99.90
26745;DHT22;14342;50.960;13.880;2024-02-28T04:09:35;5.60;99.90
26745;DHT22;14342;50.960;13.880;2024-02-28T04:10:37;5.50;99.90
26745;DHT22;14342;50.960;13.880;2024-02-28T04:11:39;5.50;99.90
26745;DHT22;14342;50.960;13.880;2024-02-28T04:12:39;5.50;99.90
26745;DHT22;14342;50.960;13.880;2024-02-28T04:13:43;5.50;99.90
26745;DHT22;14342;50.960;13.880;2024-02-28T04:14:44;5.60;99.90
26745;DHT22;14342;50.960;13.880;2024-02-28T04:15:45;5.60;99.90
26745;DHT22;14342;50.960;13.880;2024-02-28T04:16:47;5.60;99.90
26745;DHT22;14342;50.960;13.880;2024-02-28T04:17:47;5.60;99.90
26745;DHT22;14342;50.960;13.880;2024-02-28T04:18:49;5.50;99.90
26745;DHT22;14342;50.960;13.880;2024-02-28T04:19:50;5.50;99.90
26745;DHT22;14342;50.960;13.880;2024-02-28T04:20:51;5.50;99.90
26745;DHT22;14342;50.960;13.880;2024-02-28T04:21:52;5.50;99.90
26745;DHT22;14342;50.960;13.880;2024-02-28T04:22:53;5.70;99.90
26745;DHT22;14342;50.960;13.880;2024-02-28T04:23:54;5.40;99.90
26745;DHT22;14342;50.960;13.880;2024-02-28T04:24:55;5.40;99.90
26745;DHT22;14342;50.960;13.880;2024-02-28T04:25:58;5.60;99.90
26745;DHT22;14342;50.960;13.880;2024-02-28T04:26:59;5.30;99.90
26745;DHT22;14342;50.960;13.880;2024-02-28T04:28:00;5.30;99.90
26745;DHT22;14342;50.960;13.880;2024-02-28T04:29:02;5.30;99.90
26745;DHT22;14342;50.960;13.880;2024-02-28T04:30:05;5.30;99.90
26745;DHT22;14342;50.960;13.880;2024-02-28T04:31:07;5.50;99.90
26745;DHT22;14342;50.960;13.880;2024-02-28T04:32:07;5.40;99.90
26745;DHT22;14342;50.960;13.880;2024-02-28T04:33:09;5.60;99.90
26745;DHT22;14342;50.960;13.880;2024-02-28T04:34:10;5.30;99.90
26745;DHT22;14342;50.960;13.880;2024-02-28T04:35:11;5.20;99.90
26745;DHT22;14342;50.960;13.880;2024-02-28T04:36:12;5.20;99.90
26745;DHT22;14342;50.960;13.880;2024-02-28T04:37:14;5.20;99.90
26745;DHT22;14342;50.960;13.880;2024-02-28T04:38:15;5.10;99.90
26745;DHT22;14342;50.960;13.880;2024-02-28T04:39:16;5.10;99.90
26745;DHT22;14342;50.960;13.880;2024-02-28T04:40:17;5.00;99.90
26745;DHT22;14342;50.960;13.880;2024-02-28T04:41:19;5.10;99.90
26745;DHT22;14342;50.960;13.880;2024-02-28T04:42:20;5.00;99.90
26745;DHT22;14342;50.960;13.880;2024-02-28T04:43:21;5.00;99.90
26745;DHT22;14342;50.960;13.880;2024-02-28T04:44:22;5.00;99.90
26745;DHT22;14342;50.960;13.880;2024-02-28T04:45:23;5.40;99.90
26745;DHT22;14342;50.960;13.880;2024-02-28T04:46:24;5.10;99.90
26745;DHT22;14342;50.960;13.880;2024-02-28T04:47:26;5.00;99.90
26745;DHT22;14342;50.960;13.880;2024-02-28T04:48:26;5.30;99.90
26745;DHT22;14342;50.960;13.880;2024-02-28T04:49:27;5.00;99.90
26745;DHT22;14342;50.960;13.880;2024-02-28T04:50:28;5.00;99.90
26745;DHT22;14342;50.960;13.880;2024-02-28T04:51:29;5.00;99.90
26745;DHT22;14342;50.960;13.880;2024-02-28T04:52:30;5.00;99.90
26745;DHT22;14342;50.960;13.880;2024-02-28T04:53:31;5.00;99.90
26745;DHT22;14342;50.960;13.880;2024-02-28T04:54:32;4.90;99.90
26745;DHT22;14342;50.960;13.880;2024-02-28T04:55:33;5.10;99.90
26745;DHT22;14342;50.960;13.880;2024-02-28T04:56:40;4.90;99.90
26745;DHT22;14342;50.960;13.880;2024-02-28T04:57:41;4.80;99.90
26745;DHT22;14342;50.960;13.880;2024-02-28T04:58:42;4.90;99.90
26745;DHT22;14342;50.960;13.880;2024-02-28T04:59:43;4.90;99.90
26745;DHT22;14342;50.960;13.880;2024-02-28T05:00:45;4.90;99.90
26745;DHT22;14342;50.960;13.880;2024-02-28T05:01:45;5.00;99.90
26745;DHT22;14342;50.960;13.880;2024-02-28T05:02:48;5.20;99.90
26745;DHT22;14342;50.960;13.880;2024-02-28T05:03:49;5.00;99.90
26745;DHT22;14342;50.960;13.880;2024-02-28T05:04:50;5.00;99.90
26745;DHT22;14342;50.960;13.880;2024-02-28T05:05:51;5.00;99.90
26745;DHT22;14342;50.960;13.880;2024-02-28T05:06:52;4.90;99.90
26745;DHT22;14342;50.960;13.880;2024-02-28T05:07:53;5.00;99.90
26745;DHT22;14342;50.960;13.880;2024-02-28T05:08:54;5.00;99.90
26745;DHT22;14342;50.960;13.880;2024-02-28T05:09:55;4.90;99.90
26745;DHT22;14342;50.960;13.880;2024-02-28T05:10:56;5.20;99.90
26745;DHT22;14342;50.960;13.880;2024-02-28T05:11:58;5.00;99.90
26745;DHT22;14342;50.960;13.880;2024-02-28T05:13:00;4.90;99.90
26745;DHT22;14342;50.960;13.880;2024-02-28T05:14:01;4.90;99.90
26745;DHT22;14342;50.960;13.880;2024-02-28T05:15:01;4.90;99.90
26745;DHT22;14342;50.960;13.880;2024-02-28T05:16:03;4.90;99.90
26745;DHT22;14342;50.960;13.880;2024-02-28T05:17:04;5.00;99.90
26745;DHT22;14342;50.960;13.880;2024-02-28T05:18:05;5.30;99.90
26745;DHT22;14342;50.960;13.880;2024-02-28T05:19:06;4.90;99.90
26745;DHT22;14342;50.960;13.880;2024-02-28T05:20:08;5.00;99.90
26745;DHT22;14342;50.960;13.880;2024-02-28T05:21:09;4.90;99.90
26745;DHT22;14342;50.960;13.880;2024-02-28T05:22:10;4.90;99.90
26745;DHT22;14342;50.960;13.880;2024-02-28T05:23:11;4.90;99.90
26745;DHT22;14342;50.960;13.880;2024-02-28T05:24:13;5.10;99.90
26745;DHT22;14342;50.960;13.880;2024-02-28T05:25:13;4.90;99.90
26745;DHT22;14342;50.960;13.880;2024-02-28T05:26:15;4.90;99.90
26745;DHT22;14342;50.960;13.880;2024-02-28T05:27:17;4.90;99.90
26745;DHT22;14342;50.960;13.880;2024-02-28T05:28:17;4.90;99.90
26745;DHT22;14342;50.960;13.880;2024-02-28T05:29:19;5.00;99.90
26745;DHT22;14342;50.960;13.880;2024-02-28T05:30:19;4.90;99.90
26745;DHT22;14342;50.960;13.880;2024-02-28T05:31:21;4.90;99.90
26745;DHT22;14342;50.960;13.880;2024-02-28T05:32:22;4.90;99.90
26745;DHT22;14342;50.960;13.880;2024-02-28T05:33:24;5.00;99.90
26745;DHT22;14342;50.960;13.880;2024-02-28T05:34:24;5.00;99.90
26745;DHT22;14342;50.960;13.880;2024-02-28T05:35:25;5.00;99.90
26745;DHT22;14342;50.960;13.880;2024-02-28T05:36:27;5.10;99.90
26745;DHT22;14342;50.960;13.880;2024-02-28T05:37:28;5.10;99.90
26745;DHT22;14342;50.960;13.880;2024-02-28T05:38:29;5.10;99.90
26745;DHT22;14342;50.960;13.880;2024-02-28T05:39:30;5.10;99.90
26745;DHT22;14342;50.960;13.880;2024-02-28T05:40:32;5.10;99.90
26745;DHT22;14342;50.960;13.880;2024-02-28T05:41:32;5.10;99.90
26745;DHT22;14342;50.960;13.880;2024-02-28T05:42:34;5.20;99.90
26745;DHT22;14342;50.960;13.880;2024-02-28T05:43:36;5.20;99.90
26745;DHT22;14342;50.960;13.880;2024-02-28T05:44:37;5.20;99.90
26745;DHT22;14342;50.960;13.880;2024-02-28T05:45:39;5.20;99.90
26745;DHT22;14342;50.960;13.880;2024-02-28T05:46:39;5.20;99.90
26745;DHT22;14342;50.960;13.880;2024-02-28T05:47:41;5.20;99.90
26745;DHT22;14342;50.960;13.880;2024-02-28T05:48:41;5.10;99.90
26745;DHT22;14342;50.960;13.880;2024-02-28T05:49:42;5.20;99.90
26745;DHT22;14342;50.960;13.880;2024-02-28T05:50:44;5.20;99.90
26745;DHT22;14342;50.960;13.880;2024-02-28T05:51:44;5.10;99.90
26745;DHT22;14342;50.960;13.880;2024-02-28T05:52:46;5.10;99.90
26745;DHT22;14342;50.960;13.880;2024-02-28T05:53:48;5.10;99.90
26745;DHT22;14342;50.960;13.880;2024-02-28T05:54:49;5.10;99.90
26745;DHT22;14342;50.960;13.880;2024-02-28T05:55:50;5.00;99.90
26745;DHT22;14342;50.960;13.880;2024-02-28T05:56:53;5.00;99.90
26745;DHT22;14342;50.960;13.880;2024-02-28T05:57:55;5.00;99.90
26745;DHT22;14342;50.960;13.880;2024-02-28T05:58:56;5.20;99.90
26745;DHT22;14342;50.960;13.880;2024-02-28T05:59:57;5.00;99.90
26745;DHT22;14342;50.960;13.880;2024-02-28T06:00:59;4.90;99.90
26745;DHT22;14342;50.960;13.880;2024-02-28T06:01:59;4.90;99.90
26745;DHT22;14342;50.960;13.880;2024-02-28T06:03:01;4.90;99.90
26745;DHT22;14342;50.960;13.880;2024-02-28T06:04:02;4.90;99.90
26745;DHT22;14342;50.960;13.880;2024-02-28T06:05:04;4.90;99.90
26745;DHT22;14342;50.960;13.880;2024-02-28T06:06:05;4.90;99.90
26745;DHT22;14342;50.960;13.880;2024-02-28T06:07:05;4.90;99.90
26745;DHT22;14342;50.960;13.880;2024-02-28T06:08:07;5.00;99.90
26745;DHT22;14342;50.960;13.880;2024-02-28T06:09:08;4.90;99.90
26745;DHT22;14342;50.960;13.880;2024-02-28T06:10:10;4.90;99.90
26745;DHT22;14342;50.960;13.880;2024-02-28T06:11:11;5.10;99.90
26745;DHT22;14342;50.960;13.880;2024-02-28T06:12:13;4.90;99.90
26745;DHT22;14342;50.960;13.880;2024-02-28T06:13:15;4.80;99.90
26745;DHT22;14342;50.960;13.880;2024-02-28T06:14:16;4.90;99.90
26745;DHT22;14342;50.960;13.880;2024-02-28T06:15:18;5.00;99.90
26745;DHT22;14342;50.960;13.880;2024-02-28T06:16:19;4.90;99.90
26745;DHT22;14342;50.960;13.880;2024-02-28T06:17:20;4.90;99.90
26745;DHT22;14342;50.960;13.880;2024-02-28T06:18:21;4.80;99.90
26745;DHT22;14342;50.960;13.880;2024-02-28T06:19:23;4.80;99.90
26745;DHT22;14342;50.960;13.880;2024-02-28T06:20:24;4.80;99.90
26745;DHT22;14342;50.960;13.880;2024-02-28T06:21:25;4.80;99.90
26745;DHT22;14342;50.960;13.880;2024-02-28T06:22:26;4.80;99.90
26745;DHT22;14342;50.960;13.880;2024-02-28T06:23:28;5.20;99.90
26745;DHT22;14342;50.960;13.880;2024-02-28T06:24:28;4.80;99.90
26745;DHT22;14342;50.960;13.880;2024-02-28T06:25:30;4.80;99.90
26745;DHT22;14342;50.960;13.880;2024-02-28T06:26:34;4.90;99.90